sensor_id;sensor_type;location;lat;lon;timestamp;pressure;altitude;pressure_sealevel;temperature;humidity
9525;BME280;15940;48.734;9.112;2023-06-26T00:00:17;96501.44;;;20.51;51.94
9525;BME280;15940;48.734;9.112;2023-06-26T00:02:53;96510.78;;;20.40;51.06
9525;BME280;15940;48.734;9.112;2023-06-26T00:05:23;96518.88;;;20.31;51.29
9525;BME280;15940;48.734;9.112;2023-06-26T00:07:49;96511.72;;;20.27;51.42
9525;BME280;15940;48.734;9.112;2023-06-26T00:10:16;96507.50;;;20.26;52.06
9525;BME280;15940;48.734;9.112;2023-06-26T00:12:43;96513.56;;;20.25;52.56
9525;BME280;15940;48.734;9.112;2023-06-26T00:15:10;96512.66;;;20.22;51.67
9525;BME280;15940;48.734;9.112;2023-06-26T00:20:00;96518.00;;;20.20;51.90
9525;BME280;15940;48.734;9.112;2023-06-26T00:22:32;96514.50;;;20.20;52.39
9525;BME280;15940;48.734;9.112;2023-06-26T00:25:01;96515.78;;;20.19;52.37
9525;BME280;15940;48.734;9.112;2023-06-26T00:27:29;96507.91;;;20.15;51.85
9525;BME280;15940;48.734;9.112;2023-06-26T00:29:56;96520.00;;;20.12;52.39
9525;BME280;15940;48.734;9.112;2023-06-26T00:32:23;96513.03;;;20.11;52.03
9525;BME280;15940;48.734;9.112;2023-06-26T00:34:50;96505.34;;;20.10;52.34
9525;BME280;15940;48.734;9.112;2023-06-26T00:37:20;96512.13;;;20.09;52.33
9525;BME280;15940;48.734;9.112;2023-06-26T00:39:49;96513.78;;;20.04;52.14
9525;BME280;15940;48.734;9.112;2023-06-26T00:42:16;96509.41;;;20.01;52.28
9525;BME280;15940;48.734;9.112;2023-06-26T00:44:43;96508.66;;;20.01;52.56
9525;BME280;15940;48.734;9.112;2023-06-26T00:47:15;96506.44;;;19.99;52.61
9525;BME280;15940;48.734;9.112;2023-06-26T00:49:43;96507.00;;;19.97;52.57
9525;BME280;15940;48.734;9.112;2023-06-26T00:52:10;96506.81;;;19.95;52.49
9525;BME280;15940;48.734;9.112;2023-06-26T00:54:39;96502.78;;;19.96;52.47
9525;BME280;15940;48.734;9.112;2023-06-26T00:57:06;96502.44;;;20.00;53.02
9525;BME280;15940;48.734;9.112;2023-06-26T00:59:34;96505.72;;;19.98;52.91
9525;BME280;15940;48.734;9.112;2023-06-26T01:02:08;96509.00;;;19.97;53.18
9525;BME280;15940;48.734;9.112;2023-06-26T01:04:35;96503.16;;;19.93;53.19
9525;BME280;15940;48.734;9.112;2023-06-26T01:07:04;96500.75;;;19.89;52.87
9525;BME280;15940;48.734;9.112;2023-06-26T01:09:34;96498.41;;;19.86;53.13
9525;BME280;15940;48.734;9.112;2023-06-26T01:14:26;96498.94;;;19.84;53.67
9525;BME280;15940;48.734;9.112;2023-06-26T01:16:53;96496.03;;;19.82;53.92
9525;BME280;15940;48.734;9.112;2023-06-26T01:19:25;96483.56;;;19.74;53.32
9525;BME280;15940;48.734;9.112;2023-06-26T01:22:17;96485.75;;;19.67;54.11
9525;BME280;15940;48.734;9.112;2023-06-26T01:25:03;96489.78;;;19.59;54.21
9525;BME280;15940;48.734;9.112;2023-06-26T01:29:53;96481.31;;;19.41;54.59
9525;BME280;15940;48.734;9.112;2023-06-26T01:32:22;96487.00;;;19.36;55.29
9525;BME280;15940;48.734;9.112;2023-06-26T01:34:50;96479.47;;;19.29;56.02
9525;BME280;15940;48.734;9.112;2023-06-26T01:37:17;96479.28;;;19.27;56.14
9525;BME280;15940;48.734;9.112;2023-06-26T01:39:44;96480.38;;;19.24;55.20
9525;BME280;15940;48.734;9.112;2023-06-26T01:42:11;96479.44;;;19.21;54.97
9525;BME280;15940;48.734;9.112;2023-06-26T01:44:45;96470.31;;;19.26;55.91
9525;BME280;15940;48.734;9.112;2023-06-26T01:47:19;96473.59;;;19.32;56.09
9525;BME280;15940;48.734;9.112;2023-06-26T01:49:51;96473.78;;;19.27;56.34
9525;BME280;15940;48.734;9.112;2023-06-26T01:52:25;96474.34;;;19.25;56.20
9525;BME280;15940;48.734;9.112;2023-06-26T01:55:11;96467.00;;;19.20;55.55
9525;BME280;15940;48.734;9.112;2023-06-26T01:57:41;96464.06;;;19.18;56.21
9525;BME280;15940;48.734;9.112;2023-06-26T02:00:11;96462.22;;;19.13;56.28
9525;BME280;15940;48.734;9.112;2023-06-26T02:02:41;96463.88;;;19.08;56.23
9525;BME280;15940;48.734;9.112;2023-06-26T02:05:08;96474.28;;;19.02;56.12
9525;BME280;15940;48.734;9.112;2023-06-26T02:07:38;96462.75;;;18.96;56.80
9525;BME280;15940;48.734;9.112;2023-06-26T02:10:07;96468.97;;;18.97;57.09
9525;BME280;15940;48.734;9.112;2023-06-26T02:12:35;96475.94;;;18.98;57.26
9525;BME280;15940;48.734;9.112;2023-06-26T02:15:04;96466.56;;;18.93;56.74
9525;BME280;15940;48.734;9.112;2023-06-26T02:17:31;96464.38;;;18.92;57.30
9525;BME280;15940;48.734;9.112;2023-06-26T02:20:01;96475.72;;;18.88;57.97
9525;BME280;15940;48.734;9.112;2023-06-26T02:22:28;96471.84;;;18.83;57.74
9525;BME280;15940;48.734;9.112;2023-06-26T02:24:55;96474.41;;;18.81;58.53
9525;BME280;15940;48.734;9.112;2023-06-26T02:27:25;96470.56;;;18.77;58.99
9525;BME280;15940;48.734;9.112;2023-06-26T02:29:53;96477.13;;;18.74;59.15
9525;BME280;15940;48.734;9.112;2023-06-26T02:32:20;96473.81;;;18.68;59.01
9525;BME280;15940;48.734;9.112;2023-06-26T02:34:47;96475.75;;;18.60;59.20
9525;BME280;15940;48.734;9.112;2023-06-26T02:37:15;96471.88;;;18.55;58.83
9525;BME280;15940;48.734;9.112;2023-06-26T02:39:42;96470.25;;;18.52;59.13
9525;BME280;15940;48.734;9.112;2023-06-26T02:42:09;96471.84;;;18.47;58.95
9525;BME280;15940;48.734;9.112;2023-06-26T02:44:38;96473.25;;;18.33;58.93
9525;BME280;15940;48.734;9.112;2023-06-26T02:47:05;96475.81;;;18.31;59.66
9525;BME280;15940;48.734;9.112;2023-06-26T02:49:32;96477.09;;;18.30;59.49
9525;BME280;15940;48.734;9.112;2023-06-26T02:55:41;96467.19;;;18.27;59.70
9525;BME280;15940;48.734;9.112;2023-06-26T02:58:08;96473.41;;;18.27;60.61
9525;BME280;15940;48.734;9.112;2023-06-26T03:00:35;96472.66;;;18.27;60.41
9525;BME280;15940;48.734;9.112;2023-06-26T03:03:07;96480.91;;;18.27;60.16
9525;BME280;15940;48.734;9.112;2023-06-26T03:05:34;96471.75;;;18.24;60.47
9525;BME280;15940;48.734;9.112;2023-06-26T03:08:02;96469.56;;;18.23;60.25
9525;BME280;15940;48.734;9.112;2023-06-26T03:10:31;96472.66;;;18.19;60.42
9525;BME280;15940;48.734;9.112;2023-06-26T03:13:02;96472.44;;;18.17;60.55
9525;BME280;15940;48.734;9.112;2023-06-26T03:15:32;96472.97;;;18.16;61.04
9525;BME280;15940;48.734;9.112;2023-06-26T03:17:59;96471.31;;;18.13;60.29
9525;BME280;15940;48.734;9.112;2023-06-26T03:20:26;96467.69;;;18.18;60.13
9525;BME280;15940;48.734;9.112;2023-06-26T03:22:53;96467.91;;;18.27;59.89
9525;BME280;15940;48.734;9.112;2023-06-26T03:25:20;96473.44;;;18.35;59.81
9525;BME280;15940;48.734;9.112;2023-06-26T03:27:50;96473.50;;;18.43;60.14
9525;BME280;15940;48.734;9.112;2023-06-26T03:30:18;96474.06;;;18.49;59.24
9525;BME280;15940;48.734;9.112;2023-06-26T03:32:45;96468.59;;;18.56;59.46
9525;BME280;15940;48.734;9.112;2023-06-26T03:35:12;96467.00;;;18.61;58.97
9525;BME280;15940;48.734;9.112;2023-06-26T03:37:40;96473.09;;;18.67;59.02
9525;BME280;15940;48.734;9.112;2023-06-26T03:40:09;96476.56;;;18.75;58.96
9525;BME280;15940;48.734;9.112;2023-06-26T03:42:36;96474.22;;;18.79;58.54
9525;BME280;15940;48.734;9.112;2023-06-26T03:45:04;96471.28;;;18.85;58.61
9525;BME280;15940;48.734;9.112;2023-06-26T03:47:33;96475.91;;;18.90;58.59
9525;BME280;15940;48.734;9.112;2023-06-26T03:50:02;96477.00;;;18.95;57.85
9525;BME280;15940;48.734;9.112;2023-06-26T03:52:29;96470.44;;;18.98;57.55
9525;BME280;15940;48.734;9.112;2023-06-26T03:55:05;96475.00;;;19.03;58.23
9525;BME280;15940;48.734;9.112;2023-06-26T03:57:34;96475.75;;;19.11;57.94
9525;BME280;15940;48.734;9.112;2023-06-26T04:00:02;96476.88;;;19.16;57.16
9525;BME280;15940;48.734;9.112;2023-06-26T04:02:45;96472.88;;;19.24;57.17
9525;BME280;15940;48.734;9.112;2023-06-26T04:05:12;96478.00;;;19.28;56.99
9525;BME280;15940;48.734;9.112;2023-06-26T04:07:43;96469.59;;;19.33;56.97
9525;BME280;15940;48.734;9.112;2023-06-26T04:10:10;96484.41;;;19.38;56.24
9525;BME280;15940;48.734;9.112;2023-06-26T04:12:37;96476.53;;;19.42;56.08
9525;BME280;15940;48.734;9.112;2023-06-26T04:15:06;96482.97;;;19.52;55.81
9525;BME280;15940;48.734;9.112;2023-06-26T04:17:33;96483.38;;;19.64;54.88
9525;BME280;15940;48.734;9.112;2023-06-26T04:20:02;96484.84;;;19.73;54.94
9525;BME280;15940;48.734;9.112;2023-06-26T04:22:32;96484.81;;;19.80;54.88
9525;BME280;15940;48.734;9.112;2023-06-26T04:25:02;96482.06;;;19.88;54.50
9525;BME280;15940;48.734;9.112;2023-06-26T04:27:30;96481.34;;;19.95;54.37
9525;BME280;15940;48.734;9.112;2023-06-26T04:29:57;96479.88;;;20.02;54.13
9525;BME280;15940;48.734;9.112;2023-06-26T04:32:25;96486.28;;;20.12;53.92
9525;BME280;15940;48.734;9.112;2023-06-26T04:34:53;96476.34;;;20.16;53.84
9525;BME280;15940;48.734;9.112;2023-06-26T04:37:22;96480.38;;;20.23;52.91
9525;BME280;15940;48.734;9.112;2023-06-26T04:39:50;96478.53;;;20.33;52.71
9525;BME280;15940;48.734;9.112;2023-06-26T04:42:27;96471.19;;;20.43;52.64
9525;BME280;15940;48.734;9.112;2023-06-26T04:44:53;96479.75;;;20.55;52.05
9525;BME280;15940;48.734;9.112;2023-06-26T04:47:20;96482.50;;;20.63;52.31
9525;BME280;15940;48.734;9.112;2023-06-26T04:49:48;96476.63;;;20.66;52.13
9525;BME280;15940;48.734;9.112;2023-06-26T04:52:15;96471.81;;;20.74;51.75
9525;BME280;15940;48.734;9.112;2023-06-26T04:54:45;96470.53;;;20.75;51.81
9525;BME280;15940;48.734;9.112;2023-06-26T04:57:12;96471.59;;;20.80;51.57
9525;BME280;15940;48.734;9.112;2023-06-26T04:59:43;96471.94;;;20.84;51.97
9525;BME280;15940;48.734;9.112;2023-06-26T05:02:10;96470.28;;;20.89;51.82
9525;BME280;15940;48.734;9.112;2023-06-26T05:04:38;96468.59;;;20.93;51.84
9525;BME280;15940;48.734;9.112;2023-06-26T05:07:08;96467.50;;;20.96;50.99
9525;BME280;15940;48.734;9.112;2023-06-26T05:09:39;96460.28;;;21.01;51.00
9525;BME280;15940;48.734;9.112;2023-06-26T05:12:08;96466.91;;;21.05;51.02
9525;BME280;15940;48.734;9.112;2023-06-26T05:14:35;96466.66;;;21.11;50.89
9525;BME280;15940;48.734;9.112;2023-06-26T05:17:02;96466.47;;;21.17;50.46
9525;BME280;15940;48.734;9.112;2023-06-26T05:19:31;96458.72;;;21.23;50.80
9525;BME280;15940;48.734;9.112;2023-06-26T05:21:59;96463.84;;;21.26;51.08
9525;BME280;15940;48.734;9.112;2023-06-26T05:24:30;96469.47;;;21.36;50.18
9525;BME280;15940;48.734;9.112;2023-06-26T05:27:01;96474.03;;;21.41;50.89
9525;BME280;15940;48.734;9.112;2023-06-26T05:29:32;96478.44;;;21.44;50.85
9525;BME280;15940;48.734;9.112;2023-06-26T05:32:00;96478.19;;;21.50;50.96
9525;BME280;15940;48.734;9.112;2023-06-26T05:34:28;96476.16;;;21.50;50.74
9525;BME280;15940;48.734;9.112;2023-06-26T05:36:59;96471.75;;;21.55;50.77
9525;BME280;15940;48.734;9.112;2023-06-26T05:39:27;96478.09;;;21.65;50.60
9525;BME280;15940;48.734;9.112;2023-06-26T05:41:55;96477.31;;;21.72;50.25
9525;BME280;15940;48.734;9.112;2023-06-26T05:44:23;96482.25;;;21.74;50.28
9525;BME280;15940;48.734;9.112;2023-06-26T05:46:54;96483.16;;;21.76;50.02
9525;BME280;15940;48.734;9.112;2023-06-26T05:49:21;96481.63;;;21.83;50.14
9525;BME280;15940;48.734;9.112;2023-06-26T05:51:49;96477.34;;;21.89;50.56
9525;BME280;15940;48.734;9.112;2023-06-26T05:54:25;96481.56;;;21.90;50.15
9525;BME280;15940;48.734;9.112;2023-06-26T05:56:56;96475.81;;;21.96;50.22
9525;BME280;15940;48.734;9.112;2023-06-26T05:59:25;96487.34;;;22.02;51.09
9525;BME280;15940;48.734;9.112;2023-06-26T06:01:57;96478.44;;;22.11;49.71
9525;BME280;15940;48.734;9.112;2023-06-26T06:04:24;96478.47;;;22.29;49.91
9525;BME280;15940;48.734;9.112;2023-06-26T06:06:53;96485.91;;;22.36;50.06
9525;BME280;15940;48.734;9.112;2023-06-26T06:09:20;96480.31;;;22.43;49.78
9525;BME280;15940;48.734;9.112;2023-06-26T06:11:55;96479.81;;;22.55;48.99
9525;BME280;15940;48.734;9.112;2023-06-26T06:14:22;96477.13;;;22.64;49.40
9525;BME280;15940;48.734;9.112;2023-06-26T06:16:48;96477.22;;;22.74;49.13
9525;BME280;15940;48.734;9.112;2023-06-26T06:19:18;96478.38;;;22.88;48.96
9525;BME280;15940;48.734;9.112;2023-06-26T06:21:46;96477.84;;;22.99;48.88
9525;BME280;15940;48.734;9.112;2023-06-26T06:24:15;96470.91;;;23.08;48.19
9525;BME280;15940;48.734;9.112;2023-06-26T06:26:45;96484.34;;;23.21;48.23
9525;BME280;15940;48.734;9.112;2023-06-26T06:29:12;96481.53;;;23.38;48.12
9525;BME280;15940;48.734;9.112;2023-06-26T06:31:39;96488.53;;;23.40;47.47
9525;BME280;15940;48.734;9.112;2023-06-26T06:34:06;96478.66;;;23.46;48.01
9525;BME280;15940;48.734;9.112;2023-06-26T06:36:35;96479.78;;;23.60;47.46
9525;BME280;15940;48.734;9.112;2023-06-26T06:39:02;96482.88;;;23.74;47.52
9525;BME280;15940;48.734;9.112;2023-06-26T06:41:29;96483.03;;;23.86;47.10
9525;BME280;15940;48.734;9.112;2023-06-26T06:43:56;96485.56;;;24.01;46.63
9525;BME280;15940;48.734;9.112;2023-06-26T06:46:27;96488.34;;;24.20;46.20
9525;BME280;15940;48.734;9.112;2023-06-26T06:48:54;96489.00;;;24.38;45.92
9525;BME280;15940;48.734;9.112;2023-06-26T06:51:22;96487.53;;;24.66;45.33
9525;BME280;15940;48.734;9.112;2023-06-26T06:53:50;96489.09;;;24.89;44.92
9525;BME280;15940;48.734;9.112;2023-06-26T06:56:19;96493.91;;;25.17;44.72
9525;BME280;15940;48.734;9.112;2023-06-26T06:58:46;96492.38;;;25.35;44.31
9525;BME280;15940;48.734;9.112;2023-06-26T07:01:13;96488.69;;;25.52;43.39
9525;BME280;15940;48.734;9.112;2023-06-26T07:03:40;96493.34;;;25.59;43.37
9525;BME280;15940;48.734;9.112;2023-06-26T07:06:07;96483.16;;;25.83;43.50
9525;BME280;15940;48.734;9.112;2023-06-26T07:08:34;96486.56;;;26.03;42.56
9525;BME280;15940;48.734;9.112;2023-06-26T07:11:04;96478.38;;;26.27;42.54
9525;BME280;15940;48.734;9.112;2023-06-26T07:13:31;96481.25;;;26.38;43.19
9525;BME280;15940;48.734;9.112;2023-06-26T07:15:58;96485.06;;;26.55;41.99
9525;BME280;15940;48.734;9.112;2023-06-26T07:18:25;96488.41;;;26.74;42.22
9525;BME280;15940;48.734;9.112;2023-06-26T07:20:53;96483.47;;;26.85;41.74
9525;BME280;15940;48.734;9.112;2023-06-26T07:23:20;96488.34;;;26.96;41.39
9525;BME280;15940;48.734;9.112;2023-06-26T07:25:47;96486.34;;;27.08;42.01
9525;BME280;15940;48.734;9.112;2023-06-26T07:28:16;96489.28;;;27.22;41.48
9525;BME280;15940;48.734;9.112;2023-06-26T07:30:45;96488.81;;;27.25;41.75
9525;BME280;15940;48.734;9.112;2023-06-26T07:33:12;96496.91;;;27.33;40.26
9525;BME280;15940;48.734;9.112;2023-06-26T07:35:40;96488.97;;;27.51;40.22
9525;BME280;15940;48.734;9.112;2023-06-26T07:38:07;96491.63;;;27.60;41.05
9525;BME280;15940;48.734;9.112;2023-06-26T07:40:34;96499.38;;;27.74;40.54
9525;BME280;15940;48.734;9.112;2023-06-26T07:43:01;96493.94;;;27.87;39.33
9525;BME280;15940;48.734;9.112;2023-06-26T07:45:29;96491.16;;;27.99;39.71
9525;BME280;15940;48.734;9.112;2023-06-26T07:47:56;96490.28;;;28.08;38.99
9525;BME280;15940;48.734;9.112;2023-06-26T07:50:23;96496.44;;;28.18;39.03
9525;BME280;15940;48.734;9.112;2023-06-26T07:52:51;96494.75;;;28.25;38.28
9525;BME280;15940;48.734;9.112;2023-06-26T07:55:19;96496.78;;;28.36;38.57
9525;BME280;15940;48.734;9.112;2023-06-26T07:57:46;96493.09;;;28.57;38.17
9525;BME280;15940;48.734;9.112;2023-06-26T08:00:14;96495.72;;;28.67;37.11
9525;BME280;15940;48.734;9.112;2023-06-26T08:04:59;96499.84;;;29.03;37.07
9525;BME280;15940;48.734;9.112;2023-06-26T08:07:26;96490.88;;;29.18;35.32
9525;BME280;15940;48.734;9.112;2023-06-26T08:09:53;96483.34;;;29.21;35.67
9525;BME280;15940;48.734;9.112;2023-06-26T08:12:20;96483.19;;;29.30;35.80
9525;BME280;15940;48.734;9.112;2023-06-26T08:14:49;96478.31;;;29.31;36.40
9525;BME280;15940;48.734;9.112;2023-06-26T08:17:19;96488.50;;;29.52;35.91
9525;BME280;15940;48.734;9.112;2023-06-26T08:19:46;96481.53;;;29.39;37.03
9525;BME280;15940;48.734;9.112;2023-06-26T08:22:15;96477.97;;;29.64;35.72
9525;BME280;15940;48.734;9.112;2023-06-26T08:24:42;96479.63;;;29.69;34.58
9525;BME280;15940;48.734;9.112;2023-06-26T08:27:09;96483.47;;;29.90;35.76
9525;BME280;15940;48.734;9.112;2023-06-26T08:29:37;96483.88;;;30.25;35.13
9525;BME280;15940;48.734;9.112;2023-06-26T08:32:05;96478.06;;;30.35;34.57
9525;BME280;15940;48.734;9.112;2023-06-26T08:34:33;96475.19;;;30.33;34.06
9525;BME280;15940;48.734;9.112;2023-06-26T08:37:00;96475.63;;;30.13;33.74
9525;BME280;15940;48.734;9.112;2023-06-26T08:39:28;96483.34;;;30.29;34.71
9525;BME280;15940;48.734;9.112;2023-06-26T08:41:56;96465.78;;;30.56;34.80
9525;BME280;15940;48.734;9.112;2023-06-26T08:44:23;96480.97;;;30.80;34.20
9525;BME280;15940;48.734;9.112;2023-06-26T08:46:52;96479.88;;;30.72;33.88
9525;BME280;15940;48.734;9.112;2023-06-26T08:49:25;96482.16;;;30.91;32.73
9525;BME280;15940;48.734;9.112;2023-06-26T08:52:01;96473.34;;;31.12;33.85
9525;BME280;15940;48.734;9.112;2023-06-26T08:54:44;96475.78;;;31.04;33.64
9525;BME280;15940;48.734;9.112;2023-06-26T08:57:18;96471.69;;;31.37;34.08
9525;BME280;15940;48.734;9.112;2023-06-26T08:59:46;96476.38;;;31.48;32.61
9525;BME280;15940;48.734;9.112;2023-06-26T09:02:14;96478.00;;;31.53;32.96
9525;BME280;15940;48.734;9.112;2023-06-26T09:04:42;96477.09;;;31.64;32.21
9525;BME280;15940;48.734;9.112;2023-06-26T09:07:20;96473.13;;;31.69;32.10
9525;BME280;15940;48.734;9.112;2023-06-26T09:09:51;96474.56;;;31.70;32.61
9525;BME280;15940;48.734;9.112;2023-06-26T09:12:19;96476.38;;;31.48;31.76
9525;BME280;15940;48.734;9.112;2023-06-26T09:14:47;96480.28;;;31.57;32.41
9525;BME280;15940;48.734;9.112;2023-06-26T09:17:18;96476.22;;;31.75;32.89
9525;BME280;15940;48.734;9.112;2023-06-26T09:19:48;96477.88;;;31.98;32.44
9525;BME280;15940;48.734;9.112;2023-06-26T09:22:17;96467.03;;;32.06;31.29
9525;BME280;15940;48.734;9.112;2023-06-26T09:24:44;96471.28;;;31.92;31.76
9525;BME280;15940;48.734;9.112;2023-06-26T09:27:13;96468.84;;;32.00;31.11
9525;BME280;15940;48.734;9.112;2023-06-26T09:29:40;96462.00;;;32.21;30.88
9525;BME280;15940;48.734;9.112;2023-06-26T09:35:43;96463.56;;;32.24;31.83
9525;BME280;15940;48.734;9.112;2023-06-26T09:38:12;96469.91;;;32.08;31.63
9525;BME280;15940;48.734;9.112;2023-06-26T09:40:56;96460.78;;;32.08;31.59
9525;BME280;15940;48.734;9.112;2023-06-26T09:47:09;96460.56;;;31.54;31.39
9525;BME280;15940;48.734;9.112;2023-06-26T09:49:38;96459.53;;;31.16;33.23
9525;BME280;15940;48.734;9.112;2023-06-26T09:52:08;96458.03;;;31.45;32.48
9525;BME280;15940;48.734;9.112;2023-06-26T09:54:37;96460.56;;;31.70;31.27
9525;BME280;15940;48.734;9.112;2023-06-26T09:57:10;96453.91;;;31.30;30.59
9525;BME280;15940;48.734;9.112;2023-06-26T09:59:41;96454.03;;;31.03;32.71
9525;BME280;15940;48.734;9.112;2023-06-26T10:02:24;96466.53;;;30.86;33.22
9525;BME280;15940;48.734;9.112;2023-06-26T10:04:52;96459.09;;;30.77;33.91
9525;BME280;15940;48.734;9.112;2023-06-26T10:07:20;96461.09;;;30.60;34.21
9525;BME280;15940;48.734;9.112;2023-06-26T10:09:50;96464.47;;;30.86;34.54
9525;BME280;15940;48.734;9.112;2023-06-26T10:12:23;96470.13;;;30.73;34.58
9525;BME280;15940;48.734;9.112;2023-06-26T10:14:57;96463.16;;;30.74;34.76
9525;BME280;15940;48.734;9.112;2023-06-26T10:17:29;96460.78;;;30.97;34.43
9525;BME280;15940;48.734;9.112;2023-06-26T10:20:03;96462.28;;;30.85;34.64
9525;BME280;15940;48.734;9.112;2023-06-26T10:22:41;96457.50;;;30.87;33.36
9525;BME280;15940;48.734;9.112;2023-06-26T10:25:16;96459.31;;;30.81;33.21
9525;BME280;15940;48.734;9.112;2023-06-26T10:27:57;96464.69;;;30.47;34.50
9525;BME280;15940;48.734;9.112;2023-06-26T10:30:29;96467.25;;;30.13;35.98
9525;BME280;15940;48.734;9.112;2023-06-26T10:33:00;96465.69;;;29.69;37.40
9525;BME280;15940;48.734;9.112;2023-06-26T10:35:42;96482.44;;;29.30;38.16
9525;BME280;15940;48.734;9.112;2023-06-26T10:38:15;96480.25;;;28.89;38.83
9525;BME280;15940;48.734;9.112;2023-06-26T10:40:48;96483.31;;;28.44;39.85
9525;BME280;15940;48.734;9.112;2023-06-26T10:43:18;96488.91;;;28.70;40.03
9525;BME280;15940;48.734;9.112;2023-06-26T10:45:46;96495.06;;;29.45;39.35
9525;BME280;15940;48.734;9.112;2023-06-26T10:48:22;96488.31;;;30.03;38.37
9525;BME280;15940;48.734;9.112;2023-06-26T10:50:50;96487.00;;;30.18;37.71
9525;BME280;15940;48.734;9.112;2023-06-26T10:53:23;96497.00;;;30.23;38.25
9525;BME280;15940;48.734;9.112;2023-06-26T10:55:58;96497.81;;;30.39;37.07
9525;BME280;15940;48.734;9.112;2023-06-26T10:58:41;96493.72;;;30.26;37.54
9525;BME280;15940;48.734;9.112;2023-06-26T11:01:22;96492.25;;;30.11;38.11
9525;BME280;15940;48.734;9.112;2023-06-26T11:04:05;96491.09;;;30.30;37.50
9525;BME280;15940;48.734;9.112;2023-06-26T11:06:34;96482.66;;;30.58;38.28
9525;BME280;15940;48.734;9.112;2023-06-26T11:09:07;96495.19;;;31.00;36.71
9525;BME280;15940;48.734;9.112;2023-06-26T11:11:59;96483.28;;;31.15;36.59
9525;BME280;15940;48.734;9.112;2023-06-26T11:14:31;96497.19;;;31.13;36.21
9525;BME280;15940;48.734;9.112;2023-06-26T11:17:02;96499.94;;;30.68;36.23
9525;BME280;15940;48.734;9.112;2023-06-26T11:19:33;96502.59;;;30.36;37.66
9525;BME280;15940;48.734;9.112;2023-06-26T11:22:05;96493.31;;;30.04;37.55
9525;BME280;15940;48.734;9.112;2023-06-26T11:24:33;96492.75;;;29.94;37.51
9525;BME280;15940;48.734;9.112;2023-06-26T11:27:02;96507.28;;;30.18;37.95
9525;BME280;15940;48.734;9.112;2023-06-26T11:29:31;96500.47;;;30.64;37.49
9525;BME280;15940;48.734;9.112;2023-06-26T11:32:23;96504.47;;;31.05;35.08
9525;BME280;15940;48.734;9.112;2023-06-26T11:35:02;96515.31;;;31.12;36.06
9525;BME280;15940;48.734;9.112;2023-06-26T11:37:31;96515.63;;;30.89;36.74
9525;BME280;15940;48.734;9.112;2023-06-26T11:40:35;96516.41;;;30.76;37.11
9525;BME280;15940;48.734;9.112;2023-06-26T11:43:04;96522.31;;;30.97;35.76
9525;BME280;15940;48.734;9.112;2023-06-26T11:45:32;96515.91;;;30.95;36.92
9525;BME280;15940;48.734;9.112;2023-06-26T11:48:00;96526.53;;;30.83;37.27
9525;BME280;15940;48.734;9.112;2023-06-26T11:50:29;96527.41;;;30.72;37.30
9525;BME280;15940;48.734;9.112;2023-06-26T11:52:58;96526.38;;;30.65;37.64
9525;BME280;15940;48.734;9.112;2023-06-26T11:55:27;96533.84;;;30.19;38.59
9525;BME280;15940;48.734;9.112;2023-06-26T11:57:56;96533.75;;;30.45;38.83
9525;BME280;15940;48.734;9.112;2023-06-26T12:00:24;96532.84;;;30.83;37.72
9525;BME280;15940;48.734;9.112;2023-06-26T12:02:51;96523.53;;;31.08;38.42
9525;BME280;15940;48.734;9.112;2023-06-26T12:05:26;96520.63;;;31.36;37.07
9525;BME280;15940;48.734;9.112;2023-06-26T12:07:57;96532.22;;;30.85;37.91
9525;BME280;15940;48.734;9.112;2023-06-26T12:10:25;96540.88;;;30.48;38.82
9525;BME280;15940;48.734;9.112;2023-06-26T12:12:53;96539.44;;;30.05;39.45
9525;BME280;15940;48.734;9.112;2023-06-26T12:15:26;96532.81;;;29.99;40.23
9525;BME280;15940;48.734;9.112;2023-06-26T12:17:56;96536.44;;;30.29;40.37
9525;BME280;15940;48.734;9.112;2023-06-26T12:20:24;96541.00;;;30.22;40.04
9525;BME280;15940;48.734;9.112;2023-06-26T12:22:59;96535.09;;;30.43;40.03
9525;BME280;15940;48.734;9.112;2023-06-26T12:25:28;96537.56;;;30.65;39.31
9525;BME280;15940;48.734;9.112;2023-06-26T12:27:56;96534.19;;;30.82;38.95
9525;BME280;15940;48.734;9.112;2023-06-26T12:30:23;96528.63;;;30.68;39.50
9525;BME280;15940;48.734;9.112;2023-06-26T12:32:51;96535.72;;;30.42;40.23
9525;BME280;15940;48.734;9.112;2023-06-26T12:35:20;96529.25;;;30.81;40.82
9525;BME280;15940;48.734;9.112;2023-06-26T12:37:47;96527.19;;;30.97;39.03
9525;BME280;15940;48.734;9.112;2023-06-26T12:40:25;96523.06;;;30.55;39.41
9525;BME280;15940;48.734;9.112;2023-06-26T12:42:56;96525.53;;;30.62;39.83
9525;BME280;15940;48.734;9.112;2023-06-26T12:45:24;96518.78;;;30.81;39.82
9525;BME280;15940;48.734;9.112;2023-06-26T12:47:52;96517.56;;;31.00;39.58
9525;BME280;15940;48.734;9.112;2023-06-26T12:50:21;96519.97;;;31.21;38.18
9525;BME280;15940;48.734;9.112;2023-06-26T12:52:49;96510.78;;;31.35;38.39
9525;BME280;15940;48.734;9.112;2023-06-26T12:55:16;96517.78;;;31.20;39.49
9525;BME280;15940;48.734;9.112;2023-06-26T12:57:44;96520.53;;;31.04;38.74
9525;BME280;15940;48.734;9.112;2023-06-26T13:00:15;96517.78;;;30.61;40.08
9525;BME280;15940;48.734;9.112;2023-06-26T13:02:43;96520.88;;;30.67;39.32
9525;BME280;15940;48.734;9.112;2023-06-26T13:05:11;96518.09;;;30.53;39.76
9525;BME280;15940;48.734;9.112;2023-06-26T13:07:46;96521.66;;;30.26;39.58
9525;BME280;15940;48.734;9.112;2023-06-26T13:10:14;96516.78;;;30.27;39.46
9525;BME280;15940;48.734;9.112;2023-06-26T13:12:45;96517.94;;;30.08;40.14
9525;BME280;15940;48.734;9.112;2023-06-26T13:15:12;96523.38;;;29.92;39.67
9525;BME280;15940;48.734;9.112;2023-06-26T13:17:39;96525.06;;;29.97;40.46
9525;BME280;15940;48.734;9.112;2023-06-26T13:20:16;96519.56;;;30.13;39.74
9525;BME280;15940;48.734;9.112;2023-06-26T13:22:43;96523.09;;;30.00;39.32
9525;BME280;15940;48.734;9.112;2023-06-26T13:25:12;96524.13;;;30.06;39.35
9525;BME280;15940;48.734;9.112;2023-06-26T13:27:39;96530.03;;;30.26;39.52
9525;BME280;15940;48.734;9.112;2023-06-26T13:30:11;96527.19;;;30.54;39.09
9525;BME280;15940;48.734;9.112;2023-06-26T13:32:40;96516.06;;;29.99;38.81
9525;BME280;15940;48.734;9.112;2023-06-26T13:35:08;96515.41;;;29.73;39.10
9525;BME280;15940;48.734;9.112;2023-06-26T13:37:36;96517.56;;;29.61;39.62
9525;BME280;15940;48.734;9.112;2023-06-26T13:40:05;96535.38;;;29.42;39.72
9525;BME280;15940;48.734;9.112;2023-06-26T13:42:33;96516.72;;;29.19;39.44